Time;durP1;ratioP1;P1;durP2;ratioP2;P2;SDS_P1;SDS_P2;PMS_P1;PMS_P2;Temp;Humidity;BMP_temperature;BMP_pressure;BME280_temperature;BME280_humidity;BME280_pressure;Samples;Min_cycle;Max_cycle;Signal;HPM_P1;HPM_P2
2022/10/16 00:01:27;;;;;;;1.67;0.73;;;15.70;99.90;;;;;;4450952;32;20078;-64
2022/10/16 00:03:53;;;;;;;0.40;0.40;;;15.80;99.90;;;;;;4432114;32;20068;-69
2022/10/16 00:06:21;;;;;;;0.40;0.40;;;15.80;99.90;;;;;;4432646;32;20093;-64
2022/10/16 00:08:46;;;;;;;0.40;0.40;;;15.80;99.90;;;;;;4452188;32;20089;-63
2022/10/16 00:11:17;;;;;;;0.40;0.40;;;15.80;99.90;;;;;;4452838;32;20079;-65
2022/10/16 00:13:44;;;;;;;0.50;0.50;;;15.70;99.90;;;;;;4450169;32;20127;-65
2022/10/16 00:16:12;;;;;;;0.40;0.40;;;15.80;99.90;;;;;;4451216;32;20438;-64
2022/10/16 00:18:38;;;;;;;0.60;0.60;;;15.80;99.90;;;;;;4452188;32;20661;-64
2022/10/16 00:21:05;;;;;;;0.50;0.50;;;15.70;99.90;;;;;;4453860;32;20093;-64
2022/10/16 00:23:32;;;;;;;0.30;0.30;;;15.80;99.90;;;;;;4451566;32;20257;-64
2022/10/16 00:26:02;;;;;;;0.50;0.50;;;15.80;99.90;;;;;;4454786;32;20068;-67
2022/10/16 00:28:28;;;;;;;0.52;0.52;;;15.80;99.90;;;;;;4451484;32;20085;-65
2022/10/16 00:30:54;;;;;;;0.40;0.40;;;15.80;99.90;;;;;;4451022;32;20076;-65
2022/10/16 00:33:20;;;;;;;0.28;0.28;;;15.80;99.90;;;;;;4437208;32;20422;-67
2022/10/16 00:35:45;;;;;;;0.40;0.40;;;15.80;99.90;;;;;;4428956;32;20139;-64
2022/10/16 00:38:11;;;;;;;0.32;0.32;;;15.80;99.90;;;;;;4450029;32;20113;-67
2022/10/16 00:40:36;;;;;;;0.40;0.40;;;15.80;99.90;;;;;;4455203;32;20085;-66
2022/10/16 00:43:02;;;;;;;0.50;0.50;;;15.80;99.90;;;;;;4452956;32;20566;-66
2022/10/16 00:45:28;;;;;;;0.50;0.50;;;15.90;99.90;;;;;;4452817;32;20184;-65
2022/10/16 00:47:56;;;;;;;0.40;0.40;;;15.90;99.90;;;;;;4450896;32;20097;-65
2022/10/16 00:50:31;;;;;;;0.43;0.43;;;15.80;99.90;;;;;;4453655;32;20053;-67
2022/10/16 00:52:58;;;;;;;0.30;0.30;;;15.80;99.90;;;;;;4451376;32;20092;-68
2022/10/16 00:55:25;;;;;;;0.80;0.80;;;15.80;99.90;;;;;;4452621;32;20570;-65
2022/10/16 00:57:51;;;;;;;0.50;0.50;;;15.80;99.90;;;;;;4453675;32;20239;-64
2022/10/16 01:00:21;;;;;;;0.50;0.50;;;15.80;99.90;;;;;;4451195;32;20076;-64
2022/10/16 01:02:56;;;;;;;0.40;0.40;;;15.80;99.90;;;;;;4442436;32;20073;-66
2022/10/16 01:05:23;;;;;;;0.50;0.50;;;15.80;99.90;;;;;;4426332;32;20085;-65
2022/10/16 01:08:01;;;;;;;0.40;0.40;;;15.80;99.90;;;;;;4448630;32;20081;-66
2022/10/16 01:10:37;;;;;;;0.40;0.40;;;15.80;99.90;;;;;;4453568;32;20063;-65
2022/10/16 01:13:09;;;;;;;0.50;0.50;;;15.70;99.90;;;;;;4450791;32;20057;-64
2022/10/16 01:15:45;;;;;;;0.47;0.47;;;15.70;99.90;;;;;;4451208;32;20098;-65
2022/10/16 01:18:21;;;;;;;0.37;0.37;;;15.70;99.90;;;;;;4450635;32;20115;-66
2022/10/16 01:20:54;;;;;;;0.50;0.50;;;15.70;99.90;;;;;;4453230;32;20511;-65
2022/10/16 01:23:59;;;;;;;0.90;0.70;;;15.70;99.90;;;;;;4453238;32;20119;-65
2022/10/16 01:26:42;;;;;;;0.37;0.37;;;15.70;99.90;;;;;;4432722;32;20077;-66
2022/10/16 01:29:15;;;;;;;0.37;0.37;;;15.70;99.90;;;;;;4453073;32;20515;-66
2022/10/16 01:31:47;;;;;;;0.30;0.30;;;15.70;99.90;;;;;;4449992;32;20080;-65
2022/10/16 01:34:20;;;;;;;0.40;0.40;;;15.60;99.90;;;;;;4428543;32;20201;-66
2022/10/16 01:36:51;;;;;;;0.40;0.40;;;15.60;99.90;;;;;;4439682;32;20509;-67
2022/10/16 01:39:20;;;;;;;;;;;15.60;99.90;;;;;;4452317;32;20212;-65
2022/10/16 01:41:54;;;;;;;6.18;0.57;;;15.50;99.90;;;;;;4448897;32;20391;-66
2022/10/16 01:44:25;;;;;;;0.40;0.40;;;15.50;99.90;;;;;;4450872;32;20093;-65
2022/10/16 01:46:52;;;;;;;3.40;0.70;;;15.50;99.90;;;;;;4453777;32;20072;-64
2022/10/16 01:49:20;;;;;;;0.50;0.50;;;15.50;99.90;;;;;;4452525;32;20081;-64
2022/10/16 01:51:49;;;;;;;0.50;0.50;;;15.40;99.90;;;;;;4455364;32;20056;-64
2022/10/16 01:54:17;;;;;;;0.40;0.40;;;15.40;99.90;;;;;;4453087;32;20417;-64
2022/10/16 01:56:43;;;;;;;0.62;0.52;;;15.40;99.90;;;;;;4450834;32;20081;-64
2022/10/16 01:59:13;;;;;;;0.50;0.50;;;15.40;99.90;;;;;;4449683;32;20069;-64
2022/10/16 02:01:42;;;;;;;0.50;0.50;;;15.40;99.90;;;;;;4443544;32;20525;-64
2022/10/16 02:04:18;;;;;;;0.35;0.35;;;15.30;99.90;;;;;;4420608;32;20978;-66
2022/10/16 02:06:44;;;;;;;0.40;0.40;;;15.40;99.90;;;;;;4434850;32;20041;-65
2022/10/16 02:09:10;;;;;;;0.52;0.52;;;15.40;99.90;;;;;;4448329;32;20053;-65
2022/10/16 02:11:35;;;;;;;0.40;0.40;;;15.40;99.90;;;;;;4445481;32;20742;-66
2022/10/16 02:14:05;;;;;;;0.40;0.40;;;15.40;99.90;;;;;;4447160;32;20161;-64
2022/10/16 02:16:37;;;;;;;0.37;0.37;;;15.40;99.90;;;;;;4446088;32;20081;-65
2022/10/16 02:19:04;;;;;;;0.50;0.50;;;15.40;99.90;;;;;;4448493;32;20489;-64
2022/10/16 02:21:53;;;;;;;0.30;0.30;;;15.40;99.90;;;;;;4447348;32;20572;-65
2022/10/16 02:24:42;;;;;;;0.40;0.40;;;15.40;99.90;;;;;;4429511;32;20077;-65
2022/10/16 02:27:25;;;;;;;0.40;0.40;;;15.40;99.90;;;;;;4436226;32;20064;-64
2022/10/16 02:29:58;;;;;;;0.40;0.40;;;15.50;99.90;;;;;;4445273;32;20089;-65
2022/10/16 02:32:30;;;;;;;0.50;0.50;;;15.50;99.90;;;;;;4441343;32;20203;-65
2022/10/16 02:34:57;;;;;;;0.43;0.43;;;15.50;99.90;;;;;;4419251;32;20093;-65
2022/10/16 02:37:23;;;;;;;0.30;0.30;;;15.50;99.90;;;;;;4435549;32;20527;-64
2022/10/16 02:39:49;;;;;;;0.60;0.52;;;15.50;99.90;;;;;;4447696;32;20082;-64
2022/10/16 02:42:17;;;;;;;0.40;0.40;;;15.50;99.90;;;;;;4446658;32;20154;-65
2022/10/16 02:44:42;;;;;;;0.40;0.40;;;15.50;99.90;;;;;;4447250;32;20418;-65
2022/10/16 02:47:08;;;;;;;0.30;0.30;;;15.50;99.90;;;;;;4446365;32;20069;-65
2022/10/16 02:49:33;;;;;;;0.40;0.40;;;15.50;99.90;;;;;;4445023;32;20532;-64
2022/10/16 02:51:59;;;;;;;0.30;0.30;;;15.50;99.90;;;;;;4445861;32;20089;-64
2022/10/16 02:54:24;;;;;;;0.40;0.40;;;15.50;99.90;;;;;;4448108;32;20484;-65
2022/10/16 02:56:49;;;;;;;0.30;0.30;;;15.40;99.90;;;;;;4443671;32;20278;-64
2022/10/16 02:59:15;;;;;;;0.45;0.40;;;15.40;99.90;;;;;;4446577;32;20093;-65
2022/10/16 03:01:41;;;;;;;0.30;0.30;;;15.40;99.90;;;;;;4445527;32;20084;-64
2022/10/16 03:04:06;;;;;;;0.40;0.40;;;15.40;99.90;;;;;;4424562;32;20081;-64
2022/10/16 03:06:32;;;;;;;0.50;0.50;;;15.40;99.90;;;;;;4432700;32;20257;-65
2022/10/16 03:08:57;;;;;;;0.50;0.50;;;15.30;99.90;;;;;;4448786;32;20509;-67
2022/10/16 03:11:22;;;;;;;0.40;0.40;;;15.30;99.90;;;;;;4445207;32;20136;-65
2022/10/16 03:13:48;;;;;;;0.50;0.50;;;15.30;99.90;;;;;;4445349;32;20117;-64
2022/10/16 03:16:13;;;;;;;0.57;0.57;;;15.30;99.90;;;;;;4445452;32;20434;-64
2022/10/16 03:18:39;;;;;;;0.40;0.40;;;15.30;99.90;;;;;;4446858;32;20077;-65
2022/10/16 03:21:04;;;;;;;0.60;0.60;;;15.30;99.90;;;;;;4445083;32;20106;-64
2022/10/16 03:23:30;;;;;;;0.60;0.60;;;15.20;99.90;;;;;;4447789;32;20065;-65
2022/10/16 03:25:55;;;;;;;0.32;0.32;;;15.20;99.90;;;;;;4448628;32;20112;-64
2022/10/16 03:28:21;;;;;;;0.50;0.50;;;15.20;99.90;;;;;;4443940;32;20061;-64
2022/10/16 03:30:46;;;;;;;0.40;0.40;;;15.20;99.90;;;;;;4444867;32;20081;-64
2022/10/16 03:33:12;;;;;;;0.30;0.30;;;15.20;99.90;;;;;;4432327;32;20069;-68
2022/10/16 03:35:37;;;;;;;0.70;0.60;;;15.10;99.90;;;;;;4421735;32;20060;-65
2022/10/16 03:38:03;;;;;;;0.40;0.40;;;15.10;99.90;;;;;;4440606;32;20085;-65
2022/10/16 03:40:28;;;;;;;0.47;0.47;;;15.20;99.90;;;;;;4450173;32;20532;-66
2022/10/16 03:42:57;;;;;;;0.50;0.50;;;15.20;99.90;;;;;;4447978;32;20434;-65
2022/10/16 03:45:23;;;;;;;0.35;0.35;;;15.20;99.90;;;;;;4444949;32;20081;-64
2022/10/16 03:47:48;;;;;;;0.40;0.40;;;15.20;99.90;;;;;;4445860;32;20127;-64
2022/10/16 03:50:14;;;;;;;0.40;0.40;;;15.30;99.90;;;;;;4445706;32;20065;-65
2022/10/16 03:52:40;;;;;;;0.30;0.30;;;15.30;99.90;;;;;;4445967;32;20081;-64
2022/10/16 03:55:06;;;;;;;0.40;0.40;;;15.20;99.90;;;;;;4445745;32;20077;-65
2022/10/16 03:57:31;;;;;;;24.10;0.70;;;15.20;99.90;;;;;;4444301;32;20077;-64
2022/10/16 03:59:57;;;;;;;0.37;0.37;;;15.10;99.90;;;;;;4446570;32;20524;-67
2022/10/16 04:02:23;;;;;;;0.55;0.55;;;15.10;99.90;;;;;;4442343;32;20964;-66
2022/10/16 04:04:48;;;;;;;0.80;0.70;;;15.10;99.90;;;;;;4420892;32;20091;-67
2022/10/16 04:07:13;;;;;;;0.40;0.40;;;15.00;99.90;;;;;;4440054;32;20085;-65
2022/10/16 04:09:39;;;;;;;0.47;0.47;;;15.00;99.90;;;;;;4445944;32;20101;-64
2022/10/16 04:12:05;;;;;;;0.40;0.40;;;15.00;99.90;;;;;;4445913;32;20127;-64
2022/10/16 04:14:30;;;;;;;0.47;0.47;;;15.10;99.90;;;;;;4443342;32;20110;-65
2022/10/16 04:16:55;;;;;;;0.50;0.50;;;15.10;99.90;;;;;;4443583;32;20093;-63
2022/10/16 04:19:21;;;;;;;0.70;0.70;;;15.10;99.90;;;;;;4445764;32;20061;-64
2022/10/16 04:21:46;;;;;;;0.52;0.52;;;15.10;99.90;;;;;;4445432;32;20406;-64
2022/10/16 04:24:12;;;;;;;0.40;0.40;;;15.10;99.90;;;;;;4444257;32;20077;-64
2022/10/16 04:26:38;;;;;;;0.50;0.50;;;15.10;99.90;;;;;;4445536;32;20564;-65
2022/10/16 04:29:03;;;;;;;0.40;0.40;;;15.10;99.90;;;;;;4445186;32;20092;-64
2022/10/16 04:31:29;;;;;;;0.40;0.40;;;15.00;99.90;;;;;;4443863;32;20131;-65
2022/10/16 04:33:54;;;;;;;0.37;0.37;;;15.00;99.90;;;;;;4420400;32;20057;-67
2022/10/16 04:36:20;;;;;;;0.30;0.30;;;15.00;99.90;;;;;;4428056;32;20187;-64
2022/10/16 04:38:45;;;;;;;0.40;0.40;;;14.90;99.90;;;;;;4443565;32;20591;-64
2022/10/16 04:41:11;;;;;;;0.30;0.30;;;14.80;99.90;;;;;;4445273;32;20225;-64
2022/10/16 04:43:36;;;;;;;0.45;0.43;;;14.80;99.90;;;;;;4443093;32;20112;-66
2022/10/16 04:46:04;;;;;;;4.03;0.80;;;14.70;99.90;;;;;;4447941;32;20065;-64
2022/10/16 04:48:30;;;;;;;0.55;0.55;;;14.70;99.90;;;;;;4445774;32;20089;-64
2022/10/16 04:50:55;;;;;;;0.60;0.60;;;14.70;99.90;;;;;;4443182;32;20064;-64
2022/10/16 04:53:21;;;;;;;0.40;0.40;;;14.50;99.90;;;;;;4443247;32;20114;-64
2022/10/16 04:55:46;;;;;;;0.40;0.40;;;14.60;99.90;;;;;;4443744;32;20081;-64
2022/10/16 04:58:12;;;;;;;0.50;0.50;;;14.70;99.90;;;;;;4445591;32;20074;-67
2022/10/16 05:00:38;;;;;;;0.40;0.40;;;14.70;99.90;;;;;;4442555;32;20138;-64
2022/10/16 05:03:07;;;;;;;0.40;0.40;;;14.60;99.90;;;;;;4434755;32;20555;-68
2022/10/16 05:05:33;;;;;;;6.72;1.75;;;14.60;99.90;;;;;;4424375;32;20152;-64
2022/10/16 05:07:58;;;;;;;0.35;0.35;;;14.60;99.90;;;;;;4441756;32;20065;-64
2022/10/16 05:10:23;;;;;;;0.50;0.50;;;14.50;99.90;;;;;;4447754;32;20149;-64
2022/10/16 05:12:49;;;;;;;0.98;0.57;;;14.40;99.90;;;;;;4448174;32;20061;-64
2022/10/16 05:15:15;;;;;;;0.30;0.30;;;14.40;99.90;;;;;;4442210;32;20073;-64
2022/10/16 05:17:40;;;;;;;1.45;1.20;;;14.40;99.90;;;;;;4444382;32;20077;-64
2022/10/16 05:20:06;;;;;;;0.47;0.47;;;14.30;99.90;;;;;;4445342;32;20084;-64
2022/10/16 05:22:32;;;;;;;0.30;0.30;;;14.20;99.90;;;;;;4444838;32;20101;-63
2022/10/16 05:24:57;;;;;;;0.40;0.40;;;14.20;99.90;;;;;;4443560;32;20528;-64
2022/10/16 05:27:23;;;;;;;0.32;0.32;;;14.30;99.90;;;;;;4443631;32;20080;-64
2022/10/16 05:29:48;;;;;;;0.32;0.32;;;14.20;99.90;;;;;;4442311;32;20085;-64
2022/10/16 05:32:16;;;;;;;0.40;0.40;;;14.10;99.90;;;;;;4442208;32;20525;-67
2022/10/16 05:34:41;;;;;;;0.30;0.30;;;14.10;99.90;;;;;;4415233;32;20583;-66
2022/10/16 05:37:07;;;;;;;0.40;0.40;;;14.00;99.90;;;;;;4436581;32;20116;-66
2022/10/16 05:39:32;;;;;;;0.60;0.60;;;14.00;99.90;;;;;;4442869;32;20069;-64
2022/10/16 05:41:58;;;;;;;0.32;0.32;;;14.00;99.90;;;;;;4441954;32;20092;-66
2022/10/16 05:44:24;;;;;;;0.40;0.40;;;13.90;99.90;;;;;;4447560;32;20126;-66
2022/10/16 05:46:49;;;;;;;0.37;0.37;;;14.00;99.90;;;;;;4445095;32;20061;-64
2022/10/16 05:49:15;;;;;;;0.50;0.50;;;14.10;99.90;;;;;;4445794;32;20525;-64
2022/10/16 05:51:41;;;;;;;0.30;0.30;;;14.10;99.90;;;;;;4442843;32;20094;-67
2022/10/16 05:54:07;;;;;;;0.50;0.50;;;14.10;99.90;;;;;;4446399;32;20493;-64
2022/10/16 05:56:32;;;;;;;0.50;0.50;;;14.20;99.90;;;;;;4444393;32;20120;-65
2022/10/16 05:58:58;;;;;;;2.12;1.50;;;14.10;99.90;;;;;;4447504;32;20077;-64
2022/10/16 06:01:24;;;;;;;0.40;0.40;;;14.10;99.90;;;;;;4441455;32;20077;-64
2022/10/16 06:03:51;;;;;;;0.30;0.30;;;14.10;99.90;;;;;;4424284;32;20656;-68
2022/10/16 06:06:20;;;;;;;0.40;0.40;;;14.10;99.90;;;;;;4427808;32;20073;-66
2022/10/16 06:08:46;;;;;;;0.65;0.65;;;14.10;99.90;;;;;;4444567;32;20147;-65
2022/10/16 06:11:16;;;;;;;0.52;0.52;;;14.10;99.90;;;;;;4444245;32;20084;-65
2022/10/16 06:13:42;;;;;;;0.65;0.60;;;14.10;99.90;;;;;;4442664;32;20549;-65
2022/10/16 06:16:10;;;;;;;0.50;0.50;;;14.20;99.90;;;;;;4442944;32;20112;-65
2022/10/16 06:18:35;;;;;;;0.30;0.30;;;14.20;99.90;;;;;;4442331;32;20512;-65
2022/10/16 06:21:09;;;;;;;0.30;0.30;;;14.30;99.90;;;;;;4443326;32;20092;-65
2022/10/16 06:23:35;;;;;;;0.45;0.45;;;14.30;99.90;;;;;;4442269;32;20069;-65
2022/10/16 06:26:19;;;;;;;0.40;0.40;;;14.40;99.90;;;;;;4442878;32;20061;-64
2022/10/16 06:28:44;;;;;;;0.40;0.40;;;14.40;99.90;;;;;;4440666;32;20093;-65
2022/10/16 06:31:11;;;;;;;0.40;0.40;;;14.40;99.90;;;;;;4443375;32;20100;-66
2022/10/16 06:33:37;;;;;;;0.62;0.62;;;14.40;99.90;;;;;;4432900;32;20129;-67
2022/10/16 06:36:08;;;;;;;0.30;0.30;;;14.50;99.90;;;;;;4426218;32;20057;-65
2022/10/16 06:38:33;;;;;;;0.47;0.47;;;14.60;99.90;;;;;;4445815;32;20134;-65
2022/10/16 06:40:59;;;;;;;0.57;0.57;;;14.60;99.90;;;;;;4447238;32;20228;-63
2022/10/16 06:43:25;;;;;;;0.40;0.40;;;14.60;99.90;;;;;;4446866;32;20044;-66
2022/10/16 06:45:52;;;;;;;0.43;0.43;;;14.70;99.90;;;;;;4449453;32;20069;-65
2022/10/16 06:48:18;;;;;;;0.45;0.45;;;14.80;99.90;;;;;;4446417;32;20077;-63
2022/10/16 06:50:43;;;;;;;0.55;0.55;;;14.80;99.90;;;;;;4446697;32;20081;-64
2022/10/16 06:53:09;;;;;;;0.37;0.37;;;14.80;99.90;;;;;;4449197;32;20068;-64
2022/10/16 06:55:34;;;;;;;0.55;0.55;;;14.80;99.90;;;;;;4447815;32;20172;-64
2022/10/16 06:58:00;;;;;;;0.30;0.30;;;14.80;99.90;;;;;;4451512;32;20081;-65
2022/10/16 07:00:25;;;;;;;0.50;0.50;;;14.80;99.90;;;;;;4450896;32;20335;-65
2022/10/16 07:02:51;;;;;;;0.40;0.40;;;14.90;99.90;;;;;;4446715;32;20409;-66
2022/10/16 07:05:16;;;;;;;0.40;0.40;;;14.90;99.90;;;;;;4431755;32;20084;-65
2022/10/16 07:07:42;;;;;;;0.45;0.45;;;15.00;99.90;;;;;;4446358;32;20101;-64
2022/10/16 07:10:08;;;;;;;0.30;0.30;;;15.00;99.90;;;;;;4456468;32;20073;-64
2022/10/16 07:12:33;;;;;;;0.30;0.30;;;15.10;99.90;;;;;;4438444;32;20077;-64
2022/10/16 07:14:59;;;;;;;0.43;0.43;;;15.20;99.90;;;;;;4456120;32;20293;-64
2022/10/16 07:17:24;;;;;;;0.43;0.43;;;15.20;99.90;;;;;;4451870;32;20139;-64
2022/10/16 07:19:52;;;;;;;18.20;2.30;;;15.30;99.90;;;;;;4455244;32;20131;-64
2022/10/16 07:22:18;;;;;;;0.43;0.43;;;15.40;99.90;;;;;;4451621;32;20128;-64
2022/10/16 07:24:44;;;;;;;0.35;0.35;;;15.40;99.90;;;;;;4453097;32;20595;-64
2022/10/16 07:27:09;;;;;;;0.50;0.50;;;15.50;99.90;;;;;;4451698;32;20096;-64
2022/10/16 07:29:35;;;;;;;0.40;0.40;;;15.60;99.90;;;;;;4452066;32;20088;-65
2022/10/16 07:32:01;;;;;;;0.40;0.40;;;15.70;99.90;;;;;;4449860;32;20045;-65
2022/10/16 07:34:27;;;;;;;22.13;1.48;;;15.80;99.90;;;;;;4425739;32;20073;-65
2022/10/16 07:36:52;;;;;;;0.40;0.40;;;15.80;99.90;;;;;;4441754;32;20580;-64
2022/10/16 07:39:18;;;;;;;0.85;0.55;;;15.90;99.90;;;;;;4452016;32;20173;-64
2022/10/16 07:41:44;;;;;;;0.30;0.30;;;15.90;99.90;;;;;;4451441;32;20071;-64
2022/10/16 07:44:09;;;;;;;0.40;0.40;;;15.90;99.90;;;;;;4451647;32;20089;-65
2022/10/16 07:46:35;;;;;;;0.47;0.47;;;16.00;99.90;;;;;;4449910;32;20101;-65
2022/10/16 07:49:02;;;;;;;0.30;0.30;;;16.00;99.90;;;;;;4449862;32;20084;-65
2022/10/16 07:51:27;;;;;;;0.62;0.62;;;16.10;99.90;;;;;;4451219;32;20395;-66
2022/10/16 07:53:53;;;;;;;0.52;0.52;;;16.10;99.90;;;;;;4451479;32;21080;-65
2022/10/16 07:56:20;;;;;;;0.40;0.40;;;16.20;99.90;;;;;;4453073;32;20088;-64
2022/10/16 07:58:46;;;;;;;0.30;0.30;;;16.20;99.90;;;;;;4449776;32;20069;-66
2022/10/16 08:01:14;;;;;;;0.50;0.50;;;16.20;99.90;;;;;;4447145;32;20511;-65
2022/10/16 08:03:44;;;;;;;0.35;0.35;;;16.20;99.90;;;;;;4432114;32;20105;-68
2022/10/16 08:06:10;;;;;;;0.45;0.45;;;16.30;99.90;;;;;;4429833;32;20189;-65
2022/10/16 08:08:35;;;;;;;0.45;0.45;;;16.30;99.90;;;;;;4453437;32;20113;-66
2022/10/16 08:11:03;;;;;;;0.40;0.40;;;16.30;99.90;;;;;;4452809;32;20478;-66
2022/10/16 08:13:29;;;;;;;0.40;0.40;;;16.30;99.90;;;;;;4451681;32;21368;-64
2022/10/16 08:15:55;;;;;;;0.30;0.30;;;16.30;99.90;;;;;;4453021;32;20069;-65
2022/10/16 08:18:21;;;;;;;0.45;0.45;;;16.40;99.90;;;;;;4450497;32;20096;-65
2022/10/16 08:20:46;;;;;;;0.40;0.40;;;16.40;99.90;;;;;;4453003;32;20073;-65
2022/10/16 08:23:13;;;;;;;0.40;0.40;;;16.50;99.90;;;;;;4453383;32;20108;-64
2022/10/16 08:25:40;;;;;;;0.45;0.45;;;16.50;99.90;;;;;;4451222;32;20592;-66
2022/10/16 08:28:08;;;;;;;0.40;0.40;;;16.60;99.90;;;;;;4440686;32;20492;-64
2022/10/16 08:30:33;;;;;;;0.50;0.50;;;16.60;99.90;;;;;;4453674;32;20577;-65
2022/10/16 08:32:59;;;;;;;0.40;0.40;;;16.70;99.90;;;;;;4439439;32;102921;-67
2022/10/16 08:35:25;;;;;;;0.30;0.30;;;16.70;99.90;;;;;;4427834;32;20105;-68
2022/10/16 08:37:50;;;;;;;0.35;0.35;;;16.80;99.90;;;;;;4447870;32;20500;-64
2022/10/16 08:40:26;;;;;;;0.47;0.47;;;16.90;99.90;;;;;;4452267;32;20169;-64
2022/10/16 08:43:31;;;;;;;0.40;0.40;;;16.90;99.90;;;;;;4449816;32;20105;-65
2022/10/16 08:46:26;;;;;;;0.77;0.77;;;16.90;99.90;;;;;;4431823;32;20479;-65
2022/10/16 08:48:54;;;;;;;0.40;0.40;;;16.90;99.90;;;;;;4441350;32;20076;-66
2022/10/16 08:51:26;;;;;;;0.55;0.55;;;16.90;99.90;;;;;;4453266;32;20095;-64
2022/10/16 08:53:56;;;;;;;0.40;0.40;;;16.90;99.90;;;;;;4452912;32;20580;-64
2022/10/16 08:56:21;;;;;;;0.40;0.40;;;16.90;99.90;;;;;;4451485;32;20116;-64
2022/10/16 08:58:48;;;;;;;0.43;0.43;;;17.00;99.90;;;;;;4451845;32;20225;-66
2022/10/16 09:01:16;;;;;;;0.40;0.40;;;17.00;99.90;;;;;;4451587;32;20637;-65
2022/10/16 09:04:21;;;;;;;41.00;0.65;;;17.00;99.90;;;;;;4432010;32;20262;-68
2022/10/16 09:06:55;;;;;;;0.40;0.40;;;17.00;99.90;;;;;;4416635;32;20203;-65
2022/10/16 09:10:01;;;;;;;0.40;0.40;;;17.10;99.90;;;;;;4452681;32;20525;-63
2022/10/16 09:12:39;;;;;;;0.32;0.32;;;17.30;99.90;;;;;;4440785;32;20072;-64
2022/10/16 09:15:37;;;;;;;0.30;0.30;;;17.40;99.90;;;;;;4451673;32;20477;-65
2022/10/16 09:18:33;;;;;;;0.82;0.82;;;17.50;99.90;;;;;;4440287;32;20405;-64
2022/10/16 09:21:23;;;;;;;0.50;0.50;;;17.60;99.90;;;;;;4440007;32;20076;-65
2022/10/16 09:23:49;;;;;;;0.40;0.40;;;17.70;99.90;;;;;;4451017;32;20186;-67
2022/10/16 09:26:17;;;;;;;0.40;0.40;;;17.70;99.90;;;;;;4450079;32;20528;-64
2022/10/16 09:28:43;;;;;;;0.40;0.40;;;17.70;99.90;;;;;;4452248;32;20073;-64
2022/10/16 09:31:19;;;;;;;0.40;0.40;;;17.70;99.90;;;;;;4450876;32;20109;-65
2022/10/16 09:33:52;;;;;;;0.30;0.30;;;17.80;99.90;;;;;;4431003;32;20830;-67
2022/10/16 09:36:19;;;;;;;0.40;0.40;;;17.80;99.90;;;;;;4430584;32;20150;-65
2022/10/16 09:38:44;;;;;;;0.30;0.30;;;17.80;99.90;;;;;;4451155;32;20061;-65
2022/10/16 09:41:27;;;;;;;0.50;0.50;;;17.90;99.90;;;;;;4451720;32;20381;-65
2022/10/16 09:43:56;;;;;;;0.40;0.40;;;17.90;99.90;;;;;;4449706;32;20086;-66
2022/10/16 09:46:39;;;;;;;0.30;0.30;;;18.20;99.90;;;;;;4452789;32;20076;-66
2022/10/16 09:49:23;;;;;;;0.40;0.40;;;18.40;99.90;;;;;;4452577;32;20119;-65
2022/10/16 09:51:49;;;;;;;0.43;0.43;;;18.40;99.90;;;;;;4441726;32;20225;-65
2022/10/16 09:54:18;;;;;;;1.65;0.95;;;18.40;99.90;;;;;;4456004;32;20073;-66
2022/10/16 09:56:46;;;;;;;0.30;0.30;;;18.30;99.90;;;;;;4452044;32;20092;-65
2022/10/16 09:59:14;;;;;;;0.40;0.40;;;18.30;99.90;;;;;;4446781;32;20093;-64
2022/10/16 10:01:50;;;;;;;0.40;0.40;;;18.30;99.90;;;;;;4443486;32;20088;-65
2022/10/16 10:04:17;;;;;;;0.40;0.40;;;18.40;99.90;;;;;;4418931;32;20587;-67
2022/10/16 10:06:48;;;;;;;0.40;0.40;;;18.60;99.90;;;;;;4429263;32;20084;-65
2022/10/16 10:09:36;;;;;;;0.30;0.30;;;18.70;99.90;;;;;;4447754;32;20065;-65
2022/10/16 10:12:04;;;;;;;0.40;0.40;;;18.80;99.90;;;;;;4446358;32;20081;-64
2022/10/16 10:14:36;;;;;;;0.35;0.35;;;18.80;99.90;;;;;;4446605;32;20076;-65
2022/10/16 10:17:09;;;;;;;0.30;0.30;;;18.80;99.90;;;;;;4431491;32;20088;-66
2022/10/16 10:19:47;;;;;;;0.40;0.40;;;18.80;99.90;;;;;;4447600;32;20065;-66
2022/10/16 10:22:18;;;;;;;0.30;0.30;;;18.80;99.90;;;;;;4432035;32;20069;-65
2022/10/16 10:24:54;;;;;;;0.30;0.30;;;18.90;99.90;;;;;;4444497;32;20069;-65
2022/10/16 10:27:22;;;;;;;0.43;0.43;;;18.90;99.90;;;;;;4445658;32;20105;-65
2022/10/16 10:30:00;;;;;;;0.43;0.43;;;19.00;99.90;;;;;;4445489;32;20057;-65
2022/10/16 10:33:03;;;;;;;0.68;0.68;;;19.00;99.90;;;;;;4444229;32;20615;-67
2022/10/16 10:35:44;;;;;;;0.30;0.30;;;19.10;99.90;;;;;;4413558;32;20093;-68
2022/10/16 10:38:24;;;;;;;0.50;0.50;;;19.10;99.90;;;;;;4442584;32;20770;-65
2022/10/16 10:41:14;;;;;;;0.40;0.40;;;19.10;99.90;;;;;;4443992;32;20085;-67
2022/10/16 10:43:55;;;;;;;0.30;0.30;;;19.00;99.90;;;;;;4447158;32;20104;-66
2022/10/16 10:46:33;;;;;;;0.30;0.30;;;19.10;99.90;;;;;;4447613;32;20137;-66
2022/10/16 10:49:28;;;;;;;0.30;0.30;;;19.10;99.90;;;;;;4445881;32;20146;-66
2022/10/16 10:52:33;;;;;;;0.40;0.40;;;19.20;99.90;;;;;;4435019;32;20113;-66
2022/10/16 10:55:15;;;;;;;0.20;0.20;;;19.40;99.90;;;;;;4439339;32;20072;-65
2022/10/16 10:58:09;;;;;;;0.30;0.30;;;19.70;99.90;;;;;;4450559;32;20061;-66
2022/10/16 11:00:57;;;;;;;0.32;0.32;;;20.00;99.90;;;;;;4440930;32;20078;-66
2022/10/16 11:03:34;;;;;;;0.30;0.30;;;19.90;99.90;;;;;;4439549;32;20101;-66
2022/10/16 11:06:12;;;;;;;0.40;0.40;;;19.70;99.90;;;;;;4434259;32;20085;-68
2022/10/16 11:08:49;;;;;;;0.30;0.30;;;19.60;99.90;;;;;;4451823;32;20073;-65
2022/10/16 11:11:38;;;;;;;0.30;0.30;;;19.70;99.90;;;;;;4452392;32;20171;-65
2022/10/16 11:14:25;;;;;;;1.98;0.60;;;20.10;99.90;;;;;;4441785;32;20100;-63
2022/10/16 11:16:54;;;;;;;0.43;0.43;;;20.40;99.90;;;;;;4437384;32;20532;-65
2022/10/16 11:19:37;;;;;;;0.30;0.30;;;20.40;99.90;;;;;;4450659;32;20362;-65
2022/10/16 11:22:28;;;;;;;0.30;0.30;;;20.60;99.90;;;;;;4453592;32;20131;-64
2022/10/16 11:25:00;;;;;;;;;;;20.50;99.90;;;;;;4442104;32;20085;-64
2022/10/16 11:27:37;;;;;;;0.30;0.30;;;20.20;99.90;;;;;;4450701;32;21240;-65
2022/10/16 11:30:11;;;;;;;0.43;0.43;;;20.20;99.90;;;;;;4452080;32;20080;-65
2022/10/16 11:32:54;;;;;;;0.35;0.35;;;20.20;99.90;;;;;;4448260;32;20092;-68
2022/10/16 11:35:29;;;;;;;0.20;0.20;;;20.20;99.90;;;;;;4430356;32;20093;-68
2022/10/16 11:37:57;;;;;;;0.30;0.30;;;20.30;99.90;;;;;;4447370;32;20158;-67
2022/10/16 11:40:30;;;;;;;0.40;0.40;;;20.40;99.90;;;;;;4452965;32;20543;-67
2022/10/16 11:43:20;;;;;;;0.30;0.30;;;20.60;99.90;;;;;;4453063;32;20864;-66
2022/10/16 11:45:51;;;;;;;0.13;0.13;;;20.70;99.90;;;;;;4441215;32;20080;-65
2022/10/16 11:48:31;;;;;;;0.30;0.30;;;20.90;99.90;;;;;;4450968;32;20089;-66
2022/10/16 11:51:18;;;;;;;0.20;0.20;;;21.00;99.90;;;;;;4452776;32;20062;-67
2022/10/16 11:54:07;;;;;;;0.28;0.28;;;21.20;99.90;;;;;;4441667;32;20425;-68
2022/10/16 11:56:38;;;;;;;0.28;0.22;;;21.20;99.90;;;;;;4441251;32;20476;-66
2022/10/16 11:59:11;;;;;;;0.22;0.22;;;20.90;99.90;;;;;;4443733;32;20089;-65
2022/10/16 12:01:45;;;;;;;0.20;0.20;;;20.90;99.90;;;;;;4443726;32;20089;-66
2022/10/16 12:04:45;;;;;;;0.30;0.30;;;21.00;99.90;;;;;;4418806;32;20461;-69
2022/10/16 12:07:15;;;;;;;0.30;0.30;;;21.20;99.90;;;;;;4424424;32;20113;-66
2022/10/16 12:09:41;;;;;;;0.28;0.28;;;21.30;99.90;;;;;;4445542;32;20920;-66
2022/10/16 12:12:36;;;;;;;0.20;0.20;;;21.40;99.90;;;;;;4449151;32;20107;-66
2022/10/16 12:15:23;;;;;;;0.20;0.20;;;21.20;99.90;;;;;;4436004;32;20113;-66
2022/10/16 12:17:50;;;;;;;0.22;0.22;;;21.10;99.90;;;;;;4430919;32;20072;-68
2022/10/16 12:20:19;;;;;;;0.22;0.22;;;21.20;99.90;;;;;;4446320;32;20118;-66
2022/10/16 12:22:53;;;;;;;0.33;0.33;;;21.60;99.90;;;;;;4446568;32;20085;-65
2022/10/16 12:25:23;;;;;;;0.20;0.20;;;22.20;99.90;;;;;;4445563;32;20142;-66
2022/10/16 12:27:58;;;;;;;0.20;0.20;;;23.00;99.90;;;;;;4443441;32;20091;-66
2022/10/16 12:30:26;;;;;;;0.20;0.20;;;23.70;99.90;;;;;;4443337;32;20516;-66
2022/10/16 12:32:55;;;;;;;0.10;0.10;;;23.90;99.90;;;;;;4436284;32;20096;-66
2022/10/16 12:35:26;;;;;;;0.20;0.20;;;24.00;99.90;;;;;;4421481;32;20084;-68
2022/10/16 12:37:52;;;;;;;0.10;0.10;;;24.10;99.90;;;;;;4437796;32;20124;-66
2022/10/16 12:40:28;;;;;;;0.10;0.10;;;24.30;99.90;;;;;;4445668;32;20183;-66
2022/10/16 12:42:53;;;;;;;0.10;0.10;;;24.40;99.90;;;;;;4445754;32;20049;-66
2022/10/16 12:45:29;;;;;;;0.25;0.25;;;24.60;99.90;;;;;;4445223;32;20604;-65
2022/10/16 12:47:55;;;;;;;0.10;0.10;;;24.20;99.90;;;;;;4439725;32;20064;-64
2022/10/16 12:50:34;;;;;;;0.10;0.10;;;23.90;99.90;;;;;;4443995;32;20154;-64
2022/10/16 12:53:01;;;;;;;0.20;0.20;;;23.70;99.90;;;;;;4445610;32;20397;-65
2022/10/16 12:55:30;;;;;;;0.05;0.05;;;23.50;99.90;;;;;;4430357;32;20710;-65
2022/10/16 12:58:25;;;;;;;0.20;0.20;;;23.30;99.90;;;;;;4447657;32;20104;-65
2022/10/16 13:01:03;;;;;;;0.20;0.20;;;23.20;99.90;;;;;;4433398;32;20104;-64
2022/10/16 13:04:00;;;;;;;0.20;0.20;;;23.00;99.90;;;;;;4427509;32;20057;-67
2022/10/16 13:06:37;;;;;;;0.10;0.10;;;22.70;99.90;;;;;;4418531;32;20061;-66